BIT weather

Baitadi Airport
Baitadi, Mahakali, Nepal

Public forecast

Using degrees Celsius for public forecast. Weather courtesy of forecast.io.

Closest aviation weather report (METAR) to Baitadi Airport

Report is more than 6 hours old.

Closest report is Pantnagar Airport, 62.0 nm (114.9 km) WSW. Retrieved 2020/07/30 06:00 UTC (7 days ago):

VIPT 300600Z 11002KT 3500 BR FEW010 SCT020 BKN090 28/26 Q1006

Closest aviation forecast (TAF) to Baitadi Airport

Forecast is more than 12 hours old.

Closest forecast is Pantnagar Airport, 62.0 nm (114.9 km) WSW. Retrieved 2016/07/10 06:00 UTC (4 years ago):

TAF VIPT 100500Z 1006/1015 24005KT 4000 HZ FEW040 SCT100 TEMPO 1010/1015 2000 -TSRA SCT030 FEW035CB BKN090